Flight Track Log - Related Links

Times and Time Zones

All times are in EDT time to prevent confusion due to time zone crossing. See the UAL4567 flight status page for this flight to view local times or setup timezone preferences in your user account.

Time Position Orientation Groundspeed Altitude Reporting Facility
EDT Latitude Longitude Course Direction KTS MPH feet Rate Location/Type
Fri 05:54:06 PM 42.9333 -87.9333 270° West 160 184 1,500  Level KMKE
Fri 05:54:36 PM 42.9333 -87.9500 270° West 167 192 2,600 2,120 Climbing KMKE
Fri 05:56:36 PM 42.9008 -87.7933 106° East 258 297 6,800 2,209 Climbing Chicago Center
Fri 05:57:38 PM 42.9025 -87.6942 89° East 261 300 9,300 2,274 Climbing Chicago Center
Fri 05:58:40 PM 42.9064 -87.5714 87° East 280 322 11,500 1,645 Climbing Chicago Center
Fri 05:59:42 PM 42.9086 -87.4578 88° East 297 342 12,700 919 Climbing Chicago Center
Fri 06:00:44 PM 42.9136 -87.3197 87° East 358 412 13,400 581 Climbing Chicago Center
Fri 06:01:46 PM 42.9017 -87.1711 96° East 389 448 13,900 927 Climbing Chicago Center
Fri 06:02:47 PM 42.8908 -87.0131 95° East 412 474 15,300 1,463 Climbing Chicago Center
Fri 06:03:49 PM 42.8819 -86.8600 94° East 410 472 16,900 1,645 Climbing Chicago Center
Fri 06:04:51 PM 42.8717 -86.7075 95° East 407 468 18,700 1,790 Climbing Chicago Center
Fri 06:05:53 PM 42.8603 -86.5236 95° East 407 468 20,600 1,645 Climbing Chicago Center
Fri 06:06:55 PM 42.8492 -86.3706 96° East 409 471 22,100 1,500 Climbing Chicago Center
Fri 06:07:57 PM 42.8386 -86.2172 95° East 411 473 23,700 1,403 Climbing Chicago Center
Fri 06:08:59 PM 42.8289 -86.0653 95° East 410 472 25,000 629 Climbing Chicago Center
Fri 06:10:01 PM 42.8172 -85.9072 96° East 423 487 25,000  Level Chicago Center
Fri 06:11:03 PM 42.8022 -85.7042 96° East 454 522 25,000  Level Chicago Center
Fri 06:12:05 PM 42.7892 -85.5267 96° East 470 541 25,000  Level Chicago Center
Fri 06:13:07 PM 42.7594 -85.3528 103° East 474 545 25,000  Level Chicago Center
Fri 06:14:09 PM 42.7264 -85.1792 104° East 476 548 25,000  Level Chicago Center
Fri 06:15:10 PM 42.6939 -85.0122 105° East 463 533 25,000  Level Chicago Center
Fri 06:16:12 PM 42.6564 -84.8175 105° East 446 513 25,000  Level Chicago Center
Fri 06:17:14 PM 42.6461 -84.6506 95° East 451 519 25,000  Level Chicago Center
Fri 06:18:09 PM 42.6461 -84.4875 90° East 447 514 25,000  Level Cleveland Center
Fri 06:19:09 PM 42.6519 -84.3156 87° East 447 514 25,000  Level Cleveland Center
Fri 06:20:09 PM 42.6531 -84.1433 89° East 453 521 25,000  Level Cleveland Center
Fri 06:21:09 PM 42.6011 -84.0022 117° Southeast 413 475 25,000 -350 Level Cleveland Center
Fri 06:22:09 PM 42.5233 -83.8881 133° Southeast 401 461 24,300 -500 Descending Cleveland Center
Fri 06:23:09 PM 42.4431 -83.7683 132° Southeast 413 475 24,000 -150 Descending Cleveland Center
Fri 06:24:09 PM 42.3631 -83.6519 133° Southeast 419 482 24,000  Level Cleveland Center
Fri 06:25:09 PM 42.2847 -83.5331 132° Southeast 419 482 24,000 -100 Level Cleveland Center
Fri 06:26:09 PM 42.2042 -83.4172 133° Southeast 419 482 23,800 -600 Descending Cleveland Center
Fri 06:27:09 PM 42.1300 -83.3047 132° Southeast 410 472 22,800 -950 Descending Cleveland Center
Fri 06:28:09 PM 42.0572 -83.2008 133° Southeast 410 472 21,900 -1,150 Descending Cleveland Center
Fri 06:29:09 PM 42.0064 -83.0533 115° Southeast 415 478 20,500 -1,525 Descending Cleveland Center
Fri 06:30:11 PM 41.9911 -82.8853 97° East 420 483 18,800 -1,850 Descending Cleveland Center
Fri 06:31:09 PM 41.9753 -82.7253 98° East 427 491 16,800 -1,949 Descending Cleveland Center
Fri 06:32:08 PM 41.9575 -82.5628 98° East 408 470 15,000 -1,882 Descending Cleveland Center
Fri 06:32:51 PM 41.9319 -82.4700 110° East 381 438 13,600 -1,967 Descending Cleveland Center
Fri 06:33:09 PM 41.9219 -82.4361 112° Southeast 406 467 13,000 -2,459 Descending Cleveland Center
Fri 06:33:52 PM 41.8903 -82.3403 114° Southeast 359 413 11,100 -2,300 Descending Cleveland Center
Fri 06:34:09 PM 41.8822 -82.3122 111° Southeast 376 433 10,700 -555 Descending Cleveland Center
Fri 06:35:51 PM 41.8228 -82.1486 116° Southeast 287 330 10,000 -443 Descending FAA TRACON SMA TRACON (SMA)
Fri 06:36:11 PM 41.7997 -82.1192 136° Southeast 282 325 9,800 -1,050 Descending FAA TRACON SMA TRACON (SMA)
Fri 06:36:31 PM 41.7767 -82.0933 140° Southeast 260 299 9,300 -1,171 Descending FAA TRACON SMA TRACON (SMA)
Fri 06:36:52 PM 41.7547 -82.0653 136° Southeast 278 320 9,000 -1,350 Descending FAA TRACON SMA TRACON (SMA)
Fri 06:37:11 PM 41.7422 -82.0519 141° Southeast 280 322 8,400 -1,846 Descending FAA TRACON SMA TRACON (SMA)
Fri 06:37:31 PM 41.7189 -82.0242 138° Southeast 279 321 7,800 -1,350 Descending FAA TRACON SMA TRACON (SMA)
Fri 06:37:51 PM 41.7075 -82.0103 138° Southeast 278 320 7,500 -450 Descending FAA TRACON SMA TRACON (SMA)
Fri 06:38:11 PM 41.7075 -82.0103 90° East 278 320 7,500 -1,543 Level FAA TRACON SMA TRACON (SMA)
Fri 06:39:01 PM 41.6269 -81.9247 142° Southeast 263 303 5,700 -1,525 Descending Cleveland Center
Fri 06:40:09 PM 41.5653 -81.8403 134° Southeast 274 315 4,500 -793 Descending Cleveland Center
Fri 06:41:02 PM 41.5411 -81.7761 117° Southeast 224 258 4,100 -650 Descending Cleveland Center
Fri 06:42:09 PM 41.5186 -81.7119 115° Southeast 166 191 3,200 -520 Descending Cleveland Center
Fri 06:43:09 PM 41.4850 -81.7417 214° Southwest 148 170 3,000 -417 Descending Cleveland Center
Fri 06:44:04 PM 41.4617 -81.7744 226° Southwest 141 162 2,400 -661 Descending Cleveland Center
Fri 06:44:58 PM 41.4428 -81.8075 233° Southwest 122 140 1,800 -678 Descending Cleveland Center
Fri 06:45:59 PM 41.4172 -81.8403 224° Southwest 129 148 1,100 -689 Descending Cleveland Center

Login

Don't have an account? Register now (free) for customized features, flight alerts, and more!